Issaquah, WA

8:01 PM PDT on March 25, 2017 (GMT -0700)
Olde Town Issaquah | | Change Station

Elev 174 ft 47.53 °N, 122.03 °W | Updated 2 seconds ago

Mostly Cloudy
Mostly Cloudy
46.2 °F
Feels Like 46 °F
N
0.0
Wind Variable Wind from ESE
Gusts 0.0 mph

Today
High -- | Low -- °F
--% Chance of Precip.
Yesterday
High -- | Low -- °F
Precip. -- in
Pressure 30.09 in
Visibility 10.0 miles
Clouds Few 6500 ft
Windchill 46 °F
Dew Point 40 °F
Humidity 79%
Rainfall 0.05 in
Snow Depth Not available.
7:00 AM 7:28 PM
Waning Crescent, 5% visible
METAR KRNT 260253Z 21003KT 10SM FEW065 09/03 A3007 RMK AO2 SLP189 T00940028 56005
Pressure 30.09 in
Visibility 10.0 miles
Clouds Few 6500 ft
Windchill 46 °F
Dew Point 40 °F
Humidity 79%
Rainfall 0.05 in
Snow Depth Not available.
7:00 AM 7:28 PM
Waning Crescent, 5% visible
METAR KRNT 260253Z 21003KT 10SM FEW065 09/03 A3007 RMK AO2 SLP189 T00940028 56005

Get Severe Weather Alerts

Thanks for signing up!

Be on the lookout for a verification email in your inbox.

You'll start receiving the daily forecast at 8 AM.

×

10-Day Weather Forecast

Almanac

Astronomy

Mar. 25, 2017 Rise Set
Actual Time
Civil Twilight
Nautical Twilight
Astronomical Twilight
Moon
Length of Visible Light
Length of Day
Tomorrow will be .
, % of the Moon is Illuminated

Today's Extremes

State Highs State Lows

Community

WunderPhotos

Upload Photos

1,962,540 photos uploaded!

WunderBlog® & News

Nearby

Air Quality

  Air Quality AQ Index Pollutant
Not available.

Snow Depth

Station Depth Elevation

Earthquake Activity

City Distance Mag. Time & Date
Minimum magnitude displayed is 2.5.

Earthquake Activity

City Distance Mag. Time & Date
Minimum magnitude displayed is 2.5.

Coastal Water Temperatures

Place Temperature

Stations

Nearby Weather Stations

Station Location Temp. Windchill Dew Point Humidity Wind Precip. Elev Updated Type
                   

Watches & Warnings

There are currently no watches in effect.